createdAt,value
2018-05-26T00:00:02.904Z,18.90
2018-05-26T00:02:30.366Z,18.90
2018-05-26T00:04:57.833Z,18.90
2018-05-26T00:07:26.063Z,18.80
2018-05-26T00:09:53.542Z,18.80
2018-05-26T00:12:21.011Z,18.70
2018-05-26T00:14:48.481Z,18.70
2018-05-26T00:17:16.709Z,18.60
2018-05-26T00:19:44.174Z,18.60
2018-05-26T00:22:11.630Z,18.50
2018-05-26T00:24:39.114Z,18.50
2018-05-26T00:27:06.582Z,18.40
2018-05-26T00:29:34.072Z,18.30
2018-05-26T00:32:01.538Z,18.30
2018-05-26T00:34:29.012Z,18.20
2018-05-26T00:36:56.478Z,18.10
2018-05-26T00:39:23.966Z,18.10
2018-05-26T00:41:52.194Z,18.20
2018-05-26T00:44:19.683Z,18.10
2018-05-26T00:46:47.148Z,18.20
2018-05-26T00:49:14.622Z,18.20
2018-05-26T00:51:42.850Z,18.20
2018-05-26T00:54:10.327Z,18.20
2018-05-26T00:56:37.785Z,18.20
2018-05-26T00:59:05.280Z,18.20
2018-05-26T01:01:32.753Z,18.10
2018-05-26T01:04:00.217Z,18.10
2018-05-26T01:06:27.686Z,18.00
2018-05-26T01:08:55.154Z,17.90
2018-05-26T01:11:22.635Z,17.90
2018-05-26T01:13:50.103Z,17.90
2018-05-26T01:16:17.577Z,17.80
2018-05-26T01:18:45.043Z,17.80
2018-05-26T01:21:12.514Z,17.70
2018-05-26T01:23:39.982Z,17.70
2018-05-26T01:26:07.458Z,17.60
2018-05-26T01:28:34.914Z,17.60
2018-05-26T01:31:02.390Z,17.60
2018-05-26T01:33:30.150Z,17.70
2018-05-26T01:35:57.617Z,17.70
2018-05-26T01:38:25.087Z,17.70
2018-05-26T01:40:53.322Z,17.60
2018-05-26T01:43:20.898Z,17.60
2018-05-26T01:45:48.381Z,17.60
2018-05-26T01:48:15.833Z,17.60
2018-05-26T01:50:44.071Z,17.40
2018-05-26T01:53:11.533Z,17.40
2018-05-26T01:55:38.997Z,17.40
2018-05-26T01:58:06.454Z,17.40
2018-05-26T02:00:33.925Z,17.40
2018-05-26T02:03:01.385Z,17.40
2018-05-26T02:05:28.870Z,17.30
2018-05-26T02:07:56.331Z,17.30
2018-05-26T02:10:23.789Z,17.30
2018-05-26T02:12:51.266Z,17.20
2018-05-26T02:15:18.728Z,17.20
2018-05-26T02:17:46.201Z,17.20
2018-05-26T02:20:13.671Z,17.20
2018-05-26T02:22:41.143Z,17.20
2018-05-26T02:25:08.610Z,17.20
2018-05-26T02:27:36.850Z,17.10
2018-05-26T02:30:04.314Z,17.10
2018-05-26T02:32:31.783Z,17.10
2018-05-26T02:34:59.243Z,17.10
2018-05-26T02:37:26.715Z,17.00
2018-05-26T02:39:54.182Z,17.00
2018-05-26T02:42:21.659Z,17.00
2018-05-26T02:44:49.126Z,17.00
2018-05-26T02:47:16.598Z,17.00
2018-05-26T02:49:44.070Z,17.00
2018-05-26T02:52:11.546Z,17.00
2018-05-26T02:54:39.011Z,16.90
2018-05-26T02:57:07.249Z,16.90
2018-05-26T02:59:34.725Z,16.80
2018-05-26T03:02:02.215Z,16.90
2018-05-26T03:04:35.246Z,16.90
2018-05-26T03:07:08.542Z,16.90
2018-05-26T03:09:41.622Z,16.90
2018-05-26T03:12:14.789Z,16.90
2018-05-26T03:14:46.707Z,16.80
2018-05-26T03:17:19.899Z,16.90
2018-05-26T03:19:47.361Z,16.80
2018-05-26T03:22:14.831Z,16.80
2018-05-26T03:24:42.316Z,16.80
2018-05-26T03:27:09.779Z,16.70
2018-05-26T03:29:37.250Z,16.60
2018-05-26T03:32:04.722Z,16.60
2018-05-26T03:34:32.206Z,16.60
2018-05-26T03:37:00.434Z,16.60
2018-05-26T03:39:27.910Z,16.60
2018-05-26T03:41:55.568Z,16.60
2018-05-26T03:44:23.038Z,16.60
2018-05-26T03:46:50.510Z,16.50
2018-05-26T03:49:17.982Z,16.60
2018-05-26T03:51:45.445Z,16.60
2018-05-26T03:54:12.927Z,16.70
2018-05-26T03:56:52.117Z,16.70
2018-05-26T03:59:22.179Z,16.70
2018-05-26T04:01:49.639Z,16.70
2018-05-26T04:04:17.236Z,16.70
2018-05-26T04:06:44.698Z,16.70
2018-05-26T04:09:12.182Z,16.70
2018-05-26T04:11:39.641Z,16.70
2018-05-26T04:14:07.095Z,16.60
2018-05-26T04:16:34.575Z,16.60
2018-05-26T04:19:02.043Z,16.50
2018-05-26T04:21:29.514Z,16.50
2018-05-26T04:23:56.974Z,16.50
2018-05-26T04:26:24.445Z,16.60
2018-05-26T04:28:51.909Z,16.60
2018-05-26T04:31:19.390Z,16.70
2018-05-26T04:33:47.623Z,16.80
2018-05-26T04:36:15.103Z,16.80
2018-05-26T04:38:42.562Z,16.80
2018-05-26T04:41:10.759Z,16.80
2018-05-26T04:43:38.223Z,16.80
2018-05-26T04:46:05.703Z,16.90
2018-05-26T04:48:33.163Z,16.80
2018-05-26T04:51:00.642Z,16.80
2018-05-26T04:53:28.110Z,16.80
2018-05-26T04:55:55.587Z,16.70
2018-05-26T04:58:23.046Z,16.70
2018-05-26T05:00:50.515Z,16.70
2018-05-26T05:03:17.974Z,16.70
2018-05-26T05:05:45.466Z,16.80
2018-05-26T05:08:12.916Z,16.80
2018-05-26T05:10:40.406Z,16.90
2018-05-26T05:13:07.875Z,16.90
2018-05-26T05:15:35.342Z,16.90
2018-05-26T05:18:02.881Z,16.90
2018-05-26T05:20:30.350Z,16.90
2018-05-26T05:22:58.593Z,16.90
2018-05-26T05:25:26.096Z,16.90
2018-05-26T05:27:53.570Z,16.90
2018-05-26T05:30:21.029Z,16.90
2018-05-26T05:32:48.502Z,17.00
2018-05-26T05:35:15.962Z,17.10
2018-05-26T05:37:43.442Z,17.20
2018-05-26T05:40:10.914Z,17.30
2018-05-26T05:42:38.385Z,17.40
2018-05-26T05:45:06.623Z,17.50
2018-05-26T05:47:34.096Z,17.50
2018-05-26T05:50:01.562Z,17.60
2018-05-26T05:52:29.038Z,17.70
2018-05-26T05:54:56.506Z,17.70
2018-05-26T05:57:23.987Z,17.80
2018-05-26T05:59:51.449Z,17.90
2018-05-26T06:02:18.931Z,17.90
2018-05-26T06:04:46.519Z,18.00
2018-05-26T06:07:13.990Z,18.00
2018-05-26T06:09:41.462Z,18.10
2018-05-26T06:12:09.081Z,18.20
2018-05-26T06:14:36.554Z,18.20
2018-05-26T06:17:05.122Z,18.30
2018-05-26T06:19:32.892Z,18.30
2018-05-26T06:22:00.523Z,18.40
2018-05-26T06:24:28.120Z,18.50
2018-05-26T06:26:55.867Z,18.60
2018-05-26T06:29:23.632Z,18.60
2018-05-26T06:31:51.160Z,18.70
2018-05-26T06:34:18.858Z,18.80
2018-05-26T06:36:46.614Z,18.90
2018-05-26T06:39:14.384Z,18.90
2018-05-26T06:41:42.013Z,19.00
2018-05-26T06:44:09.498Z,19.10
2018-05-26T06:46:36.983Z,19.20
2018-05-26T06:49:04.467Z,19.30
2018-05-26T06:51:31.944Z,19.30
2018-05-26T06:53:59.426Z,19.40
2018-05-26T06:56:27.191Z,19.50
2018-05-26T06:58:54.665Z,19.60
2018-05-26T07:01:22.415Z,19.60
2018-05-26T07:03:50.178Z,19.70
2018-05-26T07:06:17.631Z,19.80
2018-05-26T07:08:45.392Z,19.80
2018-05-26T07:11:13.163Z,19.80
2018-05-26T07:13:40.922Z,19.90
2018-05-26T07:16:08.574Z,20.00
2018-05-26T07:18:36.138Z,20.00
2018-05-26T07:21:03.786Z,20.10
2018-05-26T07:23:31.268Z,20.20
2018-05-26T07:25:58.738Z,20.20
2018-05-26T07:28:26.204Z,20.30
2018-05-26T07:30:53.739Z,20.30
2018-05-26T07:33:21.383Z,20.40
2018-05-26T07:35:48.872Z,20.50
2018-05-26T07:38:16.342Z,20.50
2018-05-26T07:40:43.815Z,20.50
2018-05-26T07:43:11.279Z,20.60
2018-05-26T07:45:38.753Z,20.60
2018-05-26T07:48:06.418Z,20.60
2018-05-26T07:50:33.919Z,20.70
2018-05-26T07:53:01.459Z,20.70
2018-05-26T07:55:29.221Z,20.70
2018-05-26T07:57:56.990Z,20.80
2018-05-26T08:00:24.784Z,20.80
2018-05-26T08:02:53.135Z,20.90
2018-05-26T08:05:20.828Z,20.90
2018-05-26T08:07:48.360Z,20.90
2018-05-26T08:10:16.011Z,21.00
2018-05-26T08:12:43.499Z,21.00
2018-05-26T08:15:10.967Z,21.10
2018-05-26T08:17:38.431Z,21.10
2018-05-26T08:20:05.894Z,21.20
2018-05-26T08:22:33.374Z,21.20
2018-05-26T08:25:00.829Z,21.30
2018-05-26T08:27:28.307Z,21.40
2018-05-26T08:29:55.771Z,21.40
2018-05-26T08:32:23.238Z,21.40
2018-05-26T08:34:50.702Z,21.50
2018-05-26T08:37:18.171Z,21.50
2018-05-26T08:39:45.634Z,21.50
2018-05-26T08:42:13.120Z,21.60
2018-05-26T08:44:40.743Z,21.60
2018-05-26T08:47:08.270Z,21.60
2018-05-26T08:49:37.446Z,21.70
2018-05-26T08:52:04.916Z,21.70
2018-05-26T08:54:32.374Z,21.80
2018-05-26T08:56:59.854Z,21.80
2018-05-26T08:59:27.317Z,21.90
2018-05-26T09:01:54.804Z,21.80
2018-05-26T09:04:22.263Z,21.80
2018-05-26T09:06:49.730Z,21.90
2018-05-26T09:09:17.205Z,21.90
2018-05-26T09:11:44.662Z,21.90
2018-05-26T09:14:12.447Z,22.00
2018-05-26T09:16:39.906Z,22.00
2018-05-26T09:19:08.892Z,22.10
2018-05-26T09:21:36.350Z,22.10
2018-05-26T09:24:04.003Z,22.10
2018-05-26T09:26:31.482Z,22.20
2018-05-26T09:28:58.942Z,22.20
2018-05-26T09:31:26.397Z,22.30
2018-05-26T09:33:53.864Z,22.30
2018-05-26T09:36:21.323Z,22.30
2018-05-26T09:38:48.790Z,22.40
2018-05-26T09:41:16.246Z,22.40
2018-05-26T09:43:43.801Z,22.40
2018-05-26T09:46:12.730Z,22.40
2018-05-26T09:48:40.218Z,22.40
2018-05-26T09:51:07.987Z,22.50
2018-05-26T09:53:35.744Z,22.50
2018-05-26T09:56:03.248Z,22.60
2018-05-26T09:58:31.446Z,22.70
2018-05-26T10:00:58.910Z,22.60
2018-05-26T10:03:26.500Z,22.70
2018-05-26T10:05:54.139Z,22.80
2018-05-26T10:08:21.626Z,22.80
2018-05-26T10:10:49.174Z,22.80
2018-05-26T10:13:16.627Z,22.80
2018-05-26T10:15:44.108Z,22.90
2018-05-26T10:18:11.760Z,22.90
2018-05-26T10:20:39.302Z,23.00
2018-05-26T10:23:06.762Z,23.00
2018-05-26T10:25:34.423Z,23.00
2018-05-26T10:28:01.988Z,23.10
2018-05-26T10:30:29.450Z,23.20
2018-05-26T10:32:57.683Z,23.20
2018-05-26T10:35:25.199Z,23.20
2018-05-26T10:37:52.659Z,23.30
2018-05-26T10:40:20.191Z,23.30
2018-05-26T10:42:47.950Z,23.30
2018-05-26T10:45:15.415Z,23.30
2018-05-26T10:47:43.667Z,23.40
2018-05-26T10:50:11.242Z,23.40
2018-05-26T10:52:38.698Z,23.40
2018-05-26T10:55:06.350Z,23.50
2018-05-26T10:57:33.806Z,23.50
2018-05-26T11:00:01.296Z,23.50
2018-05-26T11:02:28.754Z,23.50
2018-05-26T11:04:56.233Z,23.50
2018-05-26T11:07:23.746Z,23.60
2018-05-26T11:09:51.510Z,23.60
2018-05-26T11:12:18.987Z,23.60
2018-05-26T11:14:46.745Z,23.70
2018-05-26T11:17:15.922Z,23.70
2018-05-26T11:19:43.398Z,23.70
2018-05-26T11:22:10.954Z,23.70
2018-05-26T11:24:38.831Z,23.70
2018-05-26T11:27:06.394Z,23.80
2018-05-26T11:29:33.867Z,23.80
2018-05-26T11:32:01.394Z,23.70
2018-05-26T11:34:28.882Z,23.80
2018-05-26T11:36:56.361Z,23.80
2018-05-26T11:39:24.662Z,23.80
2018-05-26T11:41:52.126Z,23.80
2018-05-26T11:44:21.090Z,23.90
2018-05-26T11:46:48.557Z,23.90
2018-05-26T11:49:16.778Z,24.00
2018-05-26T11:51:45.019Z,24.00
2018-05-26T11:54:12.498Z,24.00
2018-05-26T11:56:41.470Z,24.20
2018-05-26T11:59:09.128Z,24.20
2018-05-26T12:01:36.710Z,24.20
2018-05-26T12:04:04.170Z,24.20
2018-05-26T12:06:31.626Z,24.30
2018-05-26T12:08:59.274Z,24.30
2018-05-26T12:11:26.812Z,24.40
2018-05-26T12:13:54.484Z,24.50
2018-05-26T12:16:21.941Z,24.50
2018-05-26T12:18:49.519Z,24.50
2018-05-26T12:21:18.507Z,24.50
2018-05-26T12:23:46.386Z,24.50
2018-05-26T12:26:13.914Z,24.60
2018-05-26T12:28:41.419Z,24.60
2018-05-26T12:31:08.874Z,24.60
2018-05-26T12:33:36.409Z,24.60
2018-05-26T12:36:05.430Z,24.70
2018-05-26T12:38:33.050Z,24.70
2018-05-26T12:41:00.619Z,24.80
2018-05-26T12:43:29.923Z,24.80
2018-05-26T12:45:57.566Z,24.80
2018-05-26T12:48:25.134Z,24.90
2018-05-26T12:50:52.773Z,24.90
2018-05-26T12:53:20.363Z,24.90
2018-05-26T12:55:49.354Z,25.00
2018-05-26T12:58:16.986Z,25.00
2018-05-26T13:00:44.570Z,25.00
2018-05-26T13:03:13.878Z,25.10
2018-05-26T13:05:41.555Z,25.10
2018-05-26T13:08:09.017Z,25.20
2018-05-26T13:10:36.499Z,25.20
2018-05-26T13:13:04.009Z,25.30
2018-05-26T13:15:33.306Z,25.30
2018-05-26T13:18:02.602Z,25.30
2018-05-26T13:20:30.358Z,25.30
2018-05-26T13:22:58.135Z,25.30
2018-05-26T13:25:27.134Z,25.40
2018-05-26T13:27:55.359Z,25.40
2018-05-26T13:30:22.970Z,25.40
2018-05-26T13:32:50.727Z,25.40
2018-05-26T13:35:19.759Z,25.30
2018-05-26T13:37:47.390Z,25.40
2018-05-26T13:40:14.936Z,25.40
2018-05-26T13:42:42.579Z,25.40
2018-05-26T13:45:10.042Z,25.40
2018-05-26T13:47:37.618Z,25.50
2018-05-26T13:50:06.610Z,25.50
2018-05-26T13:52:35.790Z,25.50
2018-05-26T13:55:03.292Z,25.50
2018-05-26T13:57:30.718Z,25.50
2018-05-26T13:59:58.179Z,25.60
2018-05-26T14:02:25.689Z,25.60
2018-05-26T14:04:53.128Z,25.60
2018-05-26T14:07:20.637Z,25.50
2018-05-26T14:09:48.402Z,25.50
2018-05-26T14:12:15.871Z,25.50
2018-05-26T14:14:44.834Z,25.40
2018-05-26T14:17:12.335Z,25.40
2018-05-26T14:19:40.082Z,25.40
2018-05-26T14:22:09.058Z,25.30
2018-05-26T14:24:36.522Z,25.30
2018-05-26T14:27:03.990Z,25.30
2018-05-26T14:29:32.986Z,25.20
2018-05-26T14:32:01.973Z,25.20
2018-05-26T14:34:29.748Z,25.20
2018-05-26T14:36:57.217Z,25.30
2018-05-26T14:39:24.831Z,25.30
2018-05-26T14:41:52.338Z,25.30
2018-05-26T14:44:19.789Z,25.40
2018-05-26T14:46:47.259Z,25.50
2018-05-26T14:49:14.714Z,25.50
2018-05-26T14:51:42.180Z,25.60
2018-05-26T14:54:09.699Z,25.60
2018-05-26T14:56:38.674Z,25.60
2018-05-26T14:59:06.151Z,25.60
2018-05-26T15:01:35.454Z,25.60
2018-05-26T15:04:04.418Z,25.60
2018-05-26T15:06:31.910Z,25.60
2018-05-26T15:08:59.548Z,25.70
2018-05-26T15:11:27.032Z,25.70
2018-05-26T15:13:54.498Z,25.60
2018-05-26T15:16:21.959Z,25.60
2018-05-26T15:18:49.498Z,25.60
2018-05-26T15:21:17.139Z,25.50
2018-05-26T15:23:44.642Z,25.50
2018-05-26T15:26:12.159Z,25.50
2018-05-26T15:28:39.846Z,25.40
2018-05-26T15:31:07.403Z,25.40
2018-05-26T15:33:35.038Z,25.40
2018-05-26T15:36:02.615Z,25.30
2018-05-26T15:38:31.599Z,25.30
2018-05-26T15:40:59.249Z,25.30
2018-05-26T15:43:26.750Z,25.30
2018-05-26T15:45:54.216Z,25.30
2018-05-26T15:48:21.739Z,25.40
2018-05-26T15:50:49.198Z,25.40
2018-05-26T15:53:16.972Z,25.30
2018-05-26T15:55:44.498Z,25.40
2018-05-26T15:58:12.094Z,25.50
2018-05-26T16:00:39.622Z,25.50
2018-05-26T16:03:07.290Z,25.50
2018-05-26T16:05:34.773Z,25.60
2018-05-26T16:08:03.245Z,25.50
2018-05-26T16:10:30.710Z,25.50
2018-05-26T16:12:58.165Z,25.50
2018-05-26T16:15:25.641Z,25.60
2018-05-26T16:17:53.091Z,25.50
2018-05-26T16:20:20.566Z,25.50
2018-05-26T16:22:48.015Z,25.50
2018-05-26T16:25:15.483Z,25.50
2018-05-26T16:27:42.940Z,25.50
2018-05-26T16:30:10.409Z,25.50
2018-05-26T16:32:37.867Z,25.50
2018-05-26T16:35:05.362Z,25.50
2018-05-26T16:37:32.846Z,25.60
2018-05-26T16:40:01.079Z,25.50
2018-05-26T16:42:28.545Z,25.60
2018-05-26T16:44:56.010Z,25.60
2018-05-26T16:47:23.475Z,25.60
2018-05-26T16:49:50.934Z,25.60
2018-05-26T16:52:18.386Z,25.60
2018-05-26T16:54:45.871Z,25.50
2018-05-26T16:57:13.331Z,25.60
2018-05-26T16:59:40.802Z,25.50
2018-05-26T17:02:08.269Z,25.60
2018-05-26T17:04:35.722Z,25.50
2018-05-26T17:07:03.190Z,25.50
2018-05-26T17:09:30.675Z,25.50
2018-05-26T17:11:58.121Z,25.50
2018-05-26T17:14:25.621Z,25.50
2018-05-26T17:16:53.858Z,25.50
2018-05-26T17:19:21.310Z,25.50
2018-05-26T17:21:48.774Z,25.50
2018-05-26T17:24:16.229Z,25.50
2018-05-26T17:26:43.713Z,25.50
2018-05-26T17:29:11.174Z,25.50
2018-05-26T17:31:38.643Z,25.50
2018-05-26T17:34:06.090Z,25.50
2018-05-26T17:36:33.756Z,25.60
2018-05-26T17:39:01.218Z,25.60
2018-05-26T17:41:28.686Z,25.60
2018-05-26T17:43:56.148Z,25.70
2018-05-26T17:46:23.603Z,25.70
2018-05-26T17:48:51.130Z,25.70
2018-05-26T17:51:18.578Z,25.70
2018-05-26T17:53:47.550Z,25.60
2018-05-26T17:56:15.202Z,25.60
2018-05-26T17:58:42.679Z,25.60
2018-05-26T18:01:10.126Z,25.60
2018-05-26T18:03:37.617Z,25.50
2018-05-26T18:06:05.162Z,25.50
2018-05-26T18:08:34.142Z,25.40
2018-05-26T18:11:01.914Z,25.40
2018-05-26T18:13:29.388Z,25.40
2018-05-26T18:15:57.161Z,25.40
2018-05-26T18:18:24.626Z,25.40
2018-05-26T18:20:52.210Z,25.30
2018-05-26T18:23:19.814Z,25.30
2018-05-26T18:25:47.270Z,25.30
2018-05-26T18:28:14.866Z,25.30
2018-05-26T18:30:43.290Z,25.20
2018-05-26T18:33:10.828Z,25.10
2018-05-26T18:35:38.282Z,25.10
2018-05-26T18:38:05.791Z,25.10
2018-05-26T18:40:33.426Z,25.10
2018-05-26T18:43:00.891Z,25.00
2018-05-26T18:45:28.462Z,25.00
2018-05-26T18:47:57.549Z,24.90
2018-05-26T18:50:25.178Z,24.90
2018-05-26T18:52:52.835Z,24.90
2018-05-26T18:55:20.450Z,24.80
2018-05-26T18:57:49.622Z,24.70
2018-05-26T19:00:17.081Z,24.70
2018-05-26T19:02:44.555Z,24.70
2018-05-26T19:05:12.030Z,24.70
2018-05-26T19:07:39.482Z,24.60
2018-05-26T19:10:07.035Z,24.60
2018-05-26T19:12:34.790Z,24.50
2018-05-26T19:15:03.771Z,24.40
2018-05-26T19:17:31.431Z,24.40
2018-05-26T19:19:58.923Z,24.40
2018-05-26T19:22:26.463Z,24.40
2018-05-26T19:24:55.651Z,24.20
2018-05-26T19:27:23.148Z,24.30
2018-05-26T19:29:50.679Z,24.20
2018-05-26T19:32:19.982Z,24.10
2018-05-26T19:34:48.234Z,24.10
2018-05-26T19:37:15.725Z,24.10
2018-05-26T19:39:43.269Z,24.00
2018-05-26T19:42:12.246Z,23.90
2018-05-26T19:44:40.037Z,23.90
2018-05-26T19:47:09.322Z,23.80
2018-05-26T19:49:36.977Z,23.80
2018-05-26T19:52:04.742Z,23.80
2018-05-26T19:54:32.207Z,23.70
2018-05-26T19:56:59.674Z,23.70
2018-05-26T19:59:27.171Z,23.60
2018-05-26T20:01:54.647Z,23.50
2018-05-26T20:04:22.138Z,23.50
2018-05-26T20:06:49.614Z,23.40
2018-05-26T20:09:17.233Z,23.30
2018-05-26T20:11:44.731Z,23.30
2018-05-26T20:14:12.281Z,23.20
2018-05-26T20:16:41.266Z,23.10
2018-05-26T20:19:09.064Z,23.10
2018-05-26T20:21:36.678Z,23.10
2018-05-26T20:24:04.254Z,23.00
2018-05-26T20:26:33.223Z,22.90
2018-05-26T20:29:01.018Z,22.90
2018-05-26T20:31:28.483Z,22.90
2018-05-26T20:33:55.951Z,22.90
2018-05-26T20:36:23.595Z,22.80
2018-05-26T20:38:51.066Z,22.80
2018-05-26T20:41:18.606Z,22.70
2018-05-26T20:43:46.844Z,22.60
2018-05-26T20:46:14.370Z,22.60
2018-05-26T20:48:41.894Z,22.50
2018-05-26T20:51:10.288Z,22.40
2018-05-26T20:53:38.035Z,22.40
2018-05-26T20:56:05.676Z,22.40
2018-05-26T20:58:33.174Z,22.30
2018-05-26T21:01:00.720Z,22.30
2018-05-26T21:03:29.694Z,22.10
2018-05-26T21:05:57.155Z,22.10
2018-05-26T21:08:24.812Z,22.10
2018-05-26T21:10:52.399Z,22.00
2018-05-26T21:13:20.022Z,21.90
2018-05-26T21:15:47.602Z,21.90
2018-05-26T21:18:15.058Z,21.90
2018-05-26T21:20:42.727Z,21.80
2018-05-26T21:23:10.175Z,21.80
2018-05-26T21:25:37.647Z,21.70
2018-05-26T21:28:05.102Z,21.60
2018-05-26T21:30:32.578Z,21.60
2018-05-26T21:33:00.032Z,21.50
2018-05-26T21:35:27.493Z,21.50
2018-05-26T21:37:55.022Z,21.50
2018-05-26T21:40:22.663Z,21.50
2018-05-26T21:42:50.182Z,21.40
2018-05-26T21:45:17.698Z,21.30
2018-05-26T21:47:45.156Z,21.30
2018-05-26T21:50:12.746Z,21.30
2018-05-26T21:52:40.374Z,21.20
2018-05-26T21:55:08.143Z,21.20
2018-05-26T21:57:35.905Z,21.20
2018-05-26T22:00:03.383Z,21.10
2018-05-26T22:02:31.122Z,21.10
2018-05-26T22:04:58.615Z,21.00
2018-05-26T22:07:26.675Z,21.00
2018-05-26T22:09:54.207Z,21.00
2018-05-26T22:12:21.881Z,20.90
2018-05-26T22:14:49.341Z,20.90
2018-05-26T22:17:18.137Z,20.80
2018-05-26T22:19:46.362Z,20.80
2018-05-26T22:22:13.840Z,20.80
2018-05-26T22:24:41.488Z,20.80
2018-05-26T22:27:08.986Z,20.70
2018-05-26T22:29:36.443Z,20.70
2018-05-26T22:32:03.989Z,20.60
2018-05-26T22:34:31.757Z,20.60
2018-05-26T22:36:59.530Z,20.60
2018-05-26T22:39:27.282Z,20.60
2018-05-26T22:41:55.048Z,20.60
2018-05-26T22:44:22.801Z,20.50
2018-05-26T22:46:50.454Z,20.50
2018-05-26T22:49:18.949Z,20.40
2018-05-26T22:51:46.602Z,20.40
2018-05-26T22:54:14.078Z,20.30
2018-05-26T22:56:41.542Z,20.30
2018-05-26T22:59:09.082Z,20.30
2018-05-26T23:01:36.841Z,20.30
2018-05-26T23:04:04.431Z,20.30
2018-05-26T23:06:32.865Z,20.30
2018-05-26T23:09:00.431Z,20.20
2018-05-26T23:11:27.882Z,20.20
2018-05-26T23:13:55.355Z,20.20
2018-05-26T23:16:22.809Z,20.10
2018-05-26T23:18:50.461Z,20.10
2018-05-26T23:21:17.945Z,20.10
2018-05-26T23:23:45.418Z,20.00
2018-05-26T23:26:12.878Z,20.00
2018-05-26T23:28:40.350Z,20.00
2018-05-26T23:31:07.818Z,20.00
2018-05-26T23:33:35.299Z,19.90
2018-05-26T23:36:02.781Z,19.90
2018-05-26T23:38:30.546Z,19.90
2018-05-26T23:40:58.185Z,19.80
2018-05-26T23:43:25.674Z,19.80
2018-05-26T23:45:53.131Z,19.80
2018-05-26T23:48:20.679Z,19.80
2018-05-26T23:50:48.346Z,19.70
2018-05-26T23:53:15.815Z,19.70
2018-05-26T23:55:43.357Z,19.70
2018-05-26T23:58:10.811Z,19.70
